createdAt,value
2018-10-12T00:00:55.575Z,14.60
2018-10-12T00:03:22.873Z,15.40
2018-10-12T00:05:50.153Z,14.70
2018-10-12T00:08:17.452Z,12.37
2018-10-12T00:10:44.802Z,12.03
2018-10-12T00:13:12.094Z,12.90
2018-10-12T00:15:39.378Z,13.70
2018-10-12T00:18:06.686Z,14.83
2018-10-12T00:20:33.981Z,13.30
2018-10-12T00:23:01.265Z,11.67
2018-10-12T00:25:28.581Z,13.00
2018-10-12T00:27:55.929Z,12.80
2018-10-12T00:30:23.250Z,12.60
2018-10-12T00:32:50.541Z,13.43
2018-10-12T00:35:17.882Z,13.87
2018-10-12T00:37:45.189Z,13.70
2018-10-12T00:40:12.471Z,14.50
2018-10-12T00:42:39.795Z,13.53
2018-10-12T00:45:07.155Z,13.03
2018-10-12T00:47:34.470Z,13.97
2018-10-12T00:50:01.757Z,15.07
2018-10-12T00:52:29.053Z,13.13
2018-10-12T00:54:56.550Z,13.50
2018-10-12T00:57:23.952Z,12.90
2018-10-12T00:59:51.241Z,13.20
2018-10-12T01:02:18.536Z,13.07
2018-10-12T01:04:45.824Z,13.43
2018-10-12T01:07:13.296Z,14.20
2018-10-12T01:09:40.590Z,13.20
2018-10-12T01:12:32.042Z,13.90
2018-10-12T01:15:00.110Z,13.97
2018-10-12T01:17:27.963Z,12.87
2018-10-12T01:19:55.801Z,13.37
2018-10-12T01:22:23.396Z,14.57
2018-10-12T01:24:50.710Z,13.60
2018-10-12T01:27:18.010Z,11.60
2018-10-12T01:29:45.358Z,12.60
2018-10-12T01:32:18.374Z,12.70
2018-10-12T01:34:45.638Z,13.30
2018-10-12T01:37:12.920Z,14.37
2018-10-12T01:39:40.221Z,13.43
2018-10-12T01:42:07.541Z,14.60
2018-10-12T01:44:34.874Z,14.20
2018-10-12T01:47:02.154Z,14.30
2018-10-12T01:49:29.423Z,13.30
2018-10-12T01:51:56.706Z,13.20
2018-10-12T01:54:23.953Z,12.87
2018-10-12T01:56:51.289Z,13.93
2018-10-12T01:59:18.528Z,13.40
2018-10-12T02:01:45.816Z,15.50
2018-10-12T02:04:13.061Z,14.47
2018-10-12T02:06:40.337Z,13.27
2018-10-12T02:09:07.601Z,13.67
2018-10-12T02:11:34.881Z,13.87
2018-10-12T02:14:02.136Z,13.60
2018-10-12T02:16:29.389Z,13.30
2018-10-12T02:18:56.635Z,13.80
2018-10-12T02:21:23.888Z,14.60
2018-10-12T02:23:51.279Z,13.33
2018-10-12T02:26:18.539Z,12.17
2018-10-12T02:28:45.792Z,13.20
2018-10-12T02:31:13.038Z,13.87
2018-10-12T02:33:40.309Z,13.80
2018-10-12T02:36:07.581Z,13.77
2018-10-12T02:38:34.880Z,14.33
2018-10-12T02:41:02.202Z,13.77
2018-10-12T02:43:29.469Z,12.87
2018-10-12T02:45:56.729Z,13.53
2018-10-12T02:48:23.981Z,13.67
2018-10-12T02:50:51.238Z,12.83
2018-10-12T02:53:18.517Z,12.97
2018-10-12T02:55:46.009Z,13.93
2018-10-12T02:58:13.291Z,12.60
2018-10-12T03:00:40.567Z,13.10
2018-10-12T03:03:07.828Z,12.93
2018-10-12T03:05:35.093Z,13.77
2018-10-12T03:08:02.366Z,13.00
2018-10-12T03:10:29.646Z,12.87
2018-10-12T03:12:56.921Z,12.70
2018-10-12T03:15:24.186Z,12.77
2018-10-12T03:17:51.444Z,11.90
2018-10-12T03:20:18.717Z,12.97
2018-10-12T03:22:45.978Z,13.03
2018-10-12T03:25:13.357Z,13.43
2018-10-12T03:27:52.313Z,13.20
2018-10-12T03:30:19.606Z,14.90
2018-10-12T03:32:47.044Z,13.07
2018-10-12T03:35:14.594Z,13.83
2018-10-12T03:37:41.978Z,13.43
2018-10-12T03:40:09.281Z,14.23
2018-10-12T03:42:36.533Z,13.03
2018-10-12T03:45:03.845Z,13.50
2018-10-12T03:47:31.126Z,12.63
2018-10-12T03:49:58.431Z,13.20
2018-10-12T03:52:25.701Z,12.40
2018-10-12T03:54:52.962Z,13.80
2018-10-12T03:57:20.265Z,13.80
2018-10-12T03:59:47.523Z,13.83
2018-10-12T04:02:14.757Z,13.17
2018-10-12T04:04:42.008Z,13.70
2018-10-12T04:07:09.315Z,12.73
2018-10-12T04:09:36.582Z,12.53
2018-10-12T04:12:03.857Z,12.73
2018-10-12T04:14:31.116Z,13.47
2018-10-12T04:16:58.365Z,14.27
2018-10-12T04:19:25.772Z,13.90
2018-10-12T04:21:53.016Z,13.70
2018-10-12T04:24:20.257Z,13.40
2018-10-12T04:26:47.508Z,14.63
2018-10-12T04:29:14.749Z,12.17
2018-10-12T04:31:42.013Z,12.30
2018-10-12T04:34:09.278Z,12.83
2018-10-12T04:36:36.585Z,12.40
2018-10-12T04:39:15.377Z,12.83
2018-10-12T04:41:42.677Z,13.13
2018-10-12T04:44:15.550Z,12.80
2018-10-12T04:46:43.672Z,13.93
2018-10-12T04:49:14.392Z,13.40
2018-10-12T04:51:47.748Z,13.10
2018-10-12T04:54:15.300Z,13.17
2018-10-12T04:56:42.934Z,13.47
2018-10-12T04:59:10.262Z,13.40
2018-10-12T05:01:37.563Z,14.77
2018-10-12T05:04:04.853Z,13.27
2018-10-12T05:06:32.146Z,13.40
2018-10-12T05:08:59.473Z,13.30
2018-10-12T05:11:26.774Z,12.70
2018-10-12T05:13:54.041Z,14.00
2018-10-12T05:16:21.329Z,13.00
2018-10-12T05:18:48.573Z,14.37
2018-10-12T05:21:15.842Z,14.60
2018-10-12T05:23:43.102Z,15.63
2018-10-12T05:26:10.373Z,12.43
2018-10-12T05:28:38.260Z,14.37
2018-10-12T05:31:05.718Z,13.23
2018-10-12T05:33:32.994Z,14.30
2018-10-12T05:36:00.321Z,13.60
2018-10-12T05:38:29.013Z,13.20
2018-10-12T05:40:56.266Z,14.03
2018-10-12T05:43:23.556Z,15.13
2018-10-12T05:45:50.802Z,13.90
2018-10-12T05:48:29.645Z,12.47
2018-10-12T05:50:58.825Z,13.10
2018-10-12T05:53:26.162Z,12.60
2018-10-12T05:55:53.592Z,13.27
2018-10-12T05:58:20.831Z,12.77
2018-10-12T06:00:48.657Z,14.07
2018-10-12T06:03:16.105Z,13.60
2018-10-12T06:05:43.357Z,14.07
2018-10-12T06:08:10.638Z,12.57
2018-10-12T06:10:37.909Z,13.60
2018-10-12T06:13:05.480Z,14.53
2018-10-12T06:15:32.756Z,12.20
2018-10-12T06:18:00.013Z,14.23
2018-10-12T06:20:27.333Z,15.10
2018-10-12T06:22:54.736Z,15.03
2018-10-12T06:25:22.004Z,20.50
2018-10-12T06:27:49.263Z,19.70
2018-10-12T06:30:16.508Z,17.20
2018-10-12T06:32:43.826Z,16.87
2018-10-12T06:35:11.110Z,17.63
2018-10-12T06:37:38.369Z,17.90
2018-10-12T06:40:05.695Z,26.40
2018-10-12T06:42:33.049Z,32.87
2018-10-12T06:45:00.417Z,34.17
2018-10-12T06:47:27.690Z,25.40
2018-10-12T06:49:54.941Z,21.63
2018-10-12T06:52:22.186Z,20.20
2018-10-12T06:54:49.497Z,20.20
2018-10-12T06:57:16.766Z,20.63
2018-10-12T06:59:44.107Z,19.20
2018-10-12T07:02:13.979Z,21.10
2018-10-12T07:04:41.315Z,21.53
2018-10-12T07:07:08.629Z,23.80
2018-10-12T07:09:35.904Z,18.27
2018-10-12T07:12:03.176Z,18.90
2018-10-12T07:14:30.433Z,18.73
2018-10-12T07:16:57.680Z,18.17
2018-10-12T07:19:24.941Z,19.57
2018-10-12T07:21:52.172Z,24.07
2018-10-12T07:24:19.429Z,21.50
2018-10-12T07:26:46.689Z,18.87
2018-10-12T07:29:13.929Z,19.27
2018-10-12T07:31:41.270Z,18.80
2018-10-12T07:34:08.432Z,17.97
2018-10-12T07:36:35.691Z,21.43
2018-10-12T07:39:04.772Z,22.17
2018-10-12T07:41:32.020Z,20.10
2018-10-12T07:44:00.074Z,18.57
2018-10-12T07:46:27.358Z,19.27
2018-10-12T07:48:54.599Z,17.93
2018-10-12T07:51:21.845Z,25.57
2018-10-12T07:53:49.103Z,24.73
2018-10-12T07:56:16.380Z,21.63
2018-10-12T07:58:43.645Z,21.23
2018-10-12T08:01:10.900Z,19.63
2018-10-12T08:03:38.145Z,18.30
2018-10-12T08:06:05.431Z,17.33
2018-10-12T08:08:32.676Z,17.60
2018-10-12T08:10:59.929Z,18.77
2018-10-12T08:13:27.178Z,19.43
2018-10-12T08:15:56.305Z,17.40
2018-10-12T08:18:24.053Z,18.30
2018-10-12T08:20:51.433Z,17.30
2018-10-12T08:23:18.817Z,18.20
2018-10-12T08:25:46.121Z,19.20
2018-10-12T08:28:13.402Z,16.50
2018-10-12T08:30:40.680Z,17.47
2018-10-12T08:33:07.940Z,18.50
2018-10-12T08:35:35.214Z,17.43
2018-10-12T08:38:02.609Z,17.17
2018-10-12T08:40:29.905Z,17.93
2018-10-12T08:42:57.282Z,16.37
2018-10-12T08:45:24.539Z,17.43
2018-10-12T08:47:51.822Z,16.17
2018-10-12T08:50:19.097Z,16.63
2018-10-12T08:52:46.369Z,15.87
2018-10-12T08:55:13.831Z,17.80
2018-10-12T08:57:41.130Z,16.77
2018-10-12T09:00:08.441Z,16.90
2018-10-12T09:02:35.696Z,16.67
2018-10-12T09:05:02.979Z,13.40
2018-10-12T09:07:30.273Z,15.20
2018-10-12T09:09:57.549Z,15.20
2018-10-12T09:12:24.802Z,14.77
2018-10-12T09:14:52.101Z,13.60
2018-10-12T09:17:19.479Z,13.27
2018-10-12T09:19:46.730Z,13.00
2018-10-12T09:22:13.980Z,12.00
2018-10-12T09:24:41.412Z,11.40
2018-10-12T09:27:08.736Z,11.50
2018-10-12T09:29:35.934Z,10.40
2018-10-12T09:32:03.196Z,10.47
2018-10-12T09:34:30.432Z,9.80
2018-10-12T09:36:57.779Z,10.40
2018-10-12T09:39:25.000Z,10.03
2018-10-12T09:41:52.365Z,9.67
2018-10-12T09:44:19.602Z,9.97
2018-10-12T09:46:46.894Z,9.80
2018-10-12T09:49:14.164Z,8.93
2018-10-12T09:51:41.406Z,8.93
2018-10-12T09:54:08.812Z,9.47
2018-10-12T09:56:36.057Z,8.17
2018-10-12T09:59:03.325Z,8.57
2018-10-12T10:01:36.265Z,7.60
2018-10-12T10:04:09.308Z,10.20
2018-10-12T10:06:36.554Z,8.23
2018-10-12T10:09:04.619Z,8.30
2018-10-12T10:11:31.801Z,8.00
2018-10-12T10:13:59.162Z,7.63
2018-10-12T10:16:26.309Z,7.43
2018-10-12T10:18:53.589Z,7.93
2018-10-12T10:21:20.880Z,6.60
2018-10-12T10:23:48.196Z,6.93
2018-10-12T10:26:15.478Z,6.87
2018-10-12T10:28:42.750Z,7.00
2018-10-12T10:31:09.992Z,6.07
2018-10-12T10:33:37.257Z,7.43
2018-10-12T10:36:04.629Z,6.17
2018-10-12T10:38:31.876Z,6.60
2018-10-12T10:40:59.113Z,6.77
2018-10-12T10:43:26.377Z,7.70
2018-10-12T10:45:53.633Z,6.77
2018-10-12T10:48:20.885Z,7.37
2018-10-12T10:50:48.158Z,7.17
2018-10-12T10:53:15.532Z,8.00
2018-10-12T10:55:42.804Z,7.53
2018-10-12T10:58:10.090Z,7.97
2018-10-12T11:00:37.375Z,7.50
2018-10-12T11:03:04.744Z,7.07
2018-10-12T11:05:32.077Z,8.00
2018-10-12T11:07:59.426Z,8.10
2018-10-12T11:10:26.705Z,7.30
2018-10-12T11:12:54.048Z,6.63
2018-10-12T11:15:21.264Z,7.80
2018-10-12T11:17:48.594Z,7.40
2018-10-12T11:20:15.873Z,8.40
2018-10-12T11:22:43.148Z,7.60
2018-10-12T11:25:10.417Z,7.53
2018-10-12T11:27:37.688Z,7.70
2018-10-12T11:30:05.017Z,7.67
2018-10-12T11:32:32.257Z,7.00
2018-10-12T11:35:00.221Z,6.40
2018-10-12T11:37:27.489Z,6.80
2018-10-12T11:39:55.029Z,7.50
2018-10-12T11:42:22.329Z,6.53
2018-10-12T11:44:49.644Z,6.13
2018-10-12T11:47:16.845Z,6.47
2018-10-12T11:49:44.114Z,7.10
2018-10-12T11:52:11.412Z,9.00
2018-10-12T11:54:38.663Z,7.87
2018-10-12T11:57:05.993Z,6.80
2018-10-12T11:59:33.249Z,9.27
2018-10-12T12:02:00.747Z,8.17
2018-10-12T12:04:27.964Z,7.40
2018-10-12T12:06:55.233Z,7.00
2018-10-12T12:09:22.729Z,5.70
2018-10-12T12:11:50.017Z,6.20
2018-10-12T12:14:17.301Z,5.43
2018-10-12T12:16:44.593Z,5.80
2018-10-12T12:19:11.900Z,4.90
2018-10-12T12:21:39.174Z,5.60
2018-10-12T12:24:06.472Z,5.33
2018-10-12T12:26:33.872Z,4.33
2018-10-12T12:29:01.202Z,5.10
2018-10-12T12:31:28.536Z,4.47
2018-10-12T12:33:55.865Z,4.53
2018-10-12T12:36:23.253Z,5.00
2018-10-12T12:38:50.525Z,4.97
2018-10-12T12:41:17.818Z,4.50
2018-10-12T12:43:45.503Z,5.10
2018-10-12T12:46:13.533Z,4.80
2018-10-12T12:48:40.987Z,4.70
2018-10-12T12:51:08.982Z,4.87
2018-10-12T12:53:36.288Z,4.77
2018-10-12T12:56:03.569Z,4.40
2018-10-12T12:58:30.869Z,5.70
2018-10-12T13:00:58.169Z,5.03
2018-10-12T13:03:25.462Z,4.80
2018-10-12T13:05:52.917Z,3.73
2018-10-12T13:08:20.234Z,5.33
2018-10-12T13:10:48.509Z,4.70
2018-10-12T13:13:15.840Z,5.30
2018-10-12T13:15:43.214Z,4.80
2018-10-12T13:18:10.541Z,3.80
2018-10-12T13:20:37.824Z,4.40
2018-10-12T13:23:05.145Z,4.10
2018-10-12T13:25:32.444Z,3.53
2018-10-12T13:27:59.860Z,4.10
2018-10-12T13:30:27.140Z,3.03
2018-10-12T13:32:54.417Z,4.20
2018-10-12T13:35:21.742Z,4.60
2018-10-12T13:37:49.115Z,4.07
2018-10-12T13:40:16.398Z,5.10
2018-10-12T13:42:43.725Z,3.60
2018-10-12T13:45:11.010Z,3.97
2018-10-12T13:47:38.391Z,3.63
2018-10-12T13:50:06.280Z,3.60
2018-10-12T13:52:33.584Z,4.00
2018-10-12T13:55:00.859Z,3.30
2018-10-12T13:57:28.173Z,3.20
2018-10-12T13:59:55.444Z,3.50
2018-10-12T14:02:22.813Z,2.93
2018-10-12T14:04:50.119Z,3.00
2018-10-12T14:07:17.498Z,2.80
2018-10-12T14:09:44.757Z,3.37
2018-10-12T14:12:12.053Z,3.17
2018-10-12T14:14:39.284Z,2.83
2018-10-12T14:17:06.549Z,3.40
2018-10-12T14:19:33.832Z,3.57
2018-10-12T14:22:01.093Z,3.73
2018-10-12T14:24:28.499Z,2.83
2018-10-12T14:26:55.852Z,2.60
2018-10-12T14:29:23.100Z,2.93
2018-10-12T14:31:50.357Z,2.80
2018-10-12T14:34:17.667Z,2.83
2018-10-12T14:36:44.921Z,2.70
2018-10-12T14:39:12.177Z,2.73
2018-10-12T14:41:39.434Z,2.97
2018-10-12T14:44:06.835Z,3.87
2018-10-12T14:46:34.001Z,2.77
2018-10-12T14:49:01.299Z,2.80
2018-10-12T14:51:29.144Z,3.33
2018-10-12T14:53:56.384Z,2.60
2018-10-12T14:56:23.641Z,3.20
2018-10-12T14:58:50.973Z,2.57
2018-10-12T15:01:18.177Z,2.87
2018-10-12T15:03:45.421Z,4.20
2018-10-12T15:06:12.716Z,3.13
2018-10-12T15:08:40.033Z,2.77
2018-10-12T15:11:07.348Z,2.50
2018-10-12T15:13:34.653Z,3.30
2018-10-12T15:16:02.014Z,5.20
2018-10-12T15:18:29.302Z,2.57
2018-10-12T15:20:56.671Z,3.93
2018-10-12T15:23:24.028Z,3.70
2018-10-12T15:25:51.313Z,2.63
2018-10-12T15:28:18.589Z,2.63
2018-10-12T15:30:45.884Z,2.60
2018-10-12T15:33:13.272Z,3.23
2018-10-12T15:35:40.563Z,3.20
2018-10-12T15:38:07.842Z,2.40
2018-10-12T15:40:35.181Z,3.63
2018-10-12T15:43:02.667Z,2.70
2018-10-12T15:45:29.884Z,3.20
2018-10-12T15:47:57.185Z,2.90
2018-10-12T15:50:24.489Z,3.00
2018-10-12T15:52:51.957Z,3.20
2018-10-12T15:55:19.267Z,2.43
2018-10-12T15:57:46.585Z,2.57
2018-10-12T16:00:13.894Z,2.90
2018-10-12T16:02:41.196Z,3.07
2018-10-12T16:05:08.489Z,4.23
2018-10-12T16:07:35.750Z,5.00
2018-10-12T16:10:03.053Z,4.50
2018-10-12T16:12:30.398Z,3.63
2018-10-12T16:14:57.679Z,3.93
2018-10-12T16:17:25.104Z,3.43
2018-10-12T16:19:52.357Z,3.80
2018-10-12T16:22:19.649Z,4.27
2018-10-12T16:24:58.496Z,4.50
2018-10-12T16:27:26.149Z,4.10
2018-10-12T16:29:53.456Z,3.93
2018-10-12T16:32:20.817Z,3.07
2018-10-12T16:34:48.389Z,3.40
2018-10-12T16:37:15.652Z,3.60
2018-10-12T16:39:42.924Z,4.10
2018-10-12T16:42:10.281Z,4.93
2018-10-12T16:44:37.539Z,5.87
2018-10-12T16:47:04.890Z,4.90
2018-10-12T16:49:32.175Z,5.07
2018-10-12T16:51:59.468Z,4.00
2018-10-12T16:54:26.757Z,4.77
2018-10-12T16:56:54.049Z,5.50
2018-10-12T16:59:21.492Z,5.20
2018-10-12T17:01:48.758Z,4.93
2018-10-12T17:04:16.085Z,5.10
2018-10-12T17:06:43.485Z,5.80
2018-10-12T17:09:10.806Z,9.20
2018-10-12T17:11:38.121Z,11.10
2018-10-12T17:14:05.422Z,12.03
2018-10-12T17:16:32.688Z,9.97
2018-10-12T17:19:00.052Z,10.30
2018-10-12T17:21:27.390Z,6.93
2018-10-12T17:23:54.762Z,7.97
2018-10-12T17:26:22.061Z,10.10
2018-10-12T17:28:49.354Z,22.40
2018-10-12T17:31:16.636Z,53.70
2018-10-12T17:33:43.925Z,33.20
2018-10-12T17:36:11.318Z,18.73
2018-10-12T17:38:38.607Z,14.10
2018-10-12T17:41:11.001Z,9.40
2018-10-12T17:43:38.268Z,16.37
2018-10-12T17:46:05.713Z,18.43
2018-10-12T17:48:33.008Z,18.57
2018-10-12T17:51:00.341Z,14.40
2018-10-12T17:53:27.665Z,12.20
2018-10-12T17:55:54.960Z,7.80
2018-10-12T17:58:22.276Z,5.90
2018-10-12T18:00:49.600Z,7.30
2018-10-12T18:03:16.908Z,10.50
2018-10-12T18:05:44.265Z,13.70
2018-10-12T18:08:11.596Z,14.80
2018-10-12T18:10:38.976Z,12.33
2018-10-12T18:13:06.276Z,12.73
2018-10-12T18:15:33.596Z,14.97
2018-10-12T18:18:00.861Z,12.10
2018-10-12T18:20:28.182Z,11.13
2018-10-12T18:22:55.419Z,8.93
2018-10-12T18:25:22.694Z,10.70
2018-10-12T18:27:49.983Z,11.30
2018-10-12T18:30:17.253Z,9.30
2018-10-12T18:32:44.504Z,9.97
2018-10-12T18:35:11.945Z,9.83
2018-10-12T18:37:39.239Z,8.13
2018-10-12T18:40:06.509Z,8.73
2018-10-12T18:42:33.810Z,9.70
2018-10-12T18:45:01.125Z,8.63
2018-10-12T18:47:28.439Z,8.00
2018-10-12T18:49:55.734Z,10.90
2018-10-12T18:52:23.046Z,8.90
2018-10-12T18:54:50.301Z,11.03
2018-10-12T18:57:17.571Z,13.03
2018-10-12T18:59:44.900Z,14.33
2018-10-12T19:02:12.131Z,16.70
2018-10-12T19:04:39.484Z,17.60
2018-10-12T19:07:06.686Z,18.97
2018-10-12T19:09:33.978Z,16.83
2018-10-12T19:12:01.301Z,16.57
2018-10-12T19:14:28.594Z,13.57
2018-10-12T19:16:55.898Z,12.80
2018-10-12T19:19:23.303Z,14.27
2018-10-12T19:21:50.650Z,14.83
2018-10-12T19:24:18.046Z,12.60
2018-10-12T19:26:45.390Z,10.83
2018-10-12T19:29:12.703Z,11.80
2018-10-12T19:31:40.037Z,10.90
2018-10-12T19:34:07.455Z,10.40
2018-10-12T19:36:34.776Z,10.77
2018-10-12T19:39:02.130Z,8.43
2018-10-12T19:41:29.465Z,8.43
2018-10-12T19:43:56.769Z,8.33
2018-10-12T19:46:24.044Z,8.40
2018-10-12T19:48:51.394Z,9.43
2018-10-12T19:51:18.708Z,8.53
2018-10-12T19:53:46.070Z,8.60
2018-10-12T19:56:13.370Z,8.07
2018-10-12T19:58:41.012Z,8.80
2018-10-12T20:01:08.406Z,9.23
2018-10-12T20:03:35.905Z,8.40
2018-10-12T20:06:03.236Z,8.43
2018-10-12T20:08:30.559Z,8.10
2018-10-12T20:10:57.854Z,8.40
2018-10-12T20:13:25.153Z,7.87
2018-10-12T20:15:52.547Z,8.30
2018-10-12T20:18:19.950Z,8.77
2018-10-12T20:20:47.266Z,7.93
2018-10-12T20:23:14.549Z,9.07
2018-10-12T20:25:41.864Z,7.60
2018-10-12T20:28:09.369Z,7.43
2018-10-12T20:30:36.727Z,8.30
2018-10-12T20:33:04.027Z,7.90
2018-10-12T20:35:31.341Z,8.00
2018-10-12T20:37:58.679Z,7.70
2018-10-12T20:40:25.960Z,7.93
2018-10-12T20:42:53.256Z,8.30
2018-10-12T20:45:20.600Z,8.73
2018-10-12T20:47:47.953Z,7.57
2018-10-12T20:50:15.241Z,8.70
2018-10-12T20:52:42.547Z,7.97
2018-10-12T20:55:09.861Z,7.67
2018-10-12T20:57:41.740Z,7.77
2018-10-12T21:00:09.152Z,10.20
2018-10-12T21:02:36.454Z,8.20
2018-10-12T21:05:03.877Z,8.23
2018-10-12T21:07:31.193Z,10.57
2018-10-12T21:09:58.504Z,9.27
2018-10-12T21:12:25.810Z,8.17
2018-10-12T21:14:53.121Z,7.63
2018-10-12T21:17:20.453Z,9.00
2018-10-12T21:19:47.743Z,7.50
2018-10-12T21:22:15.049Z,9.03
2018-10-12T21:24:42.342Z,8.43
2018-10-12T21:27:09.664Z,8.50
2018-10-12T21:29:36.948Z,8.43
2018-10-12T21:32:04.244Z,8.30
2018-10-12T21:34:31.572Z,8.43
2018-10-12T21:36:58.888Z,9.03
2018-10-12T21:39:26.197Z,9.10
2018-10-12T21:41:53.505Z,8.60
2018-10-12T21:44:20.805Z,8.27
2018-10-12T21:46:48.131Z,8.60
2018-10-12T21:49:15.456Z,7.73
2018-10-12T21:51:42.774Z,6.93
2018-10-12T21:54:10.195Z,8.10
2018-10-12T21:56:37.549Z,7.30
2018-10-12T21:59:04.846Z,8.00
2018-10-12T22:01:32.149Z,7.20
2018-10-12T22:03:59.433Z,7.50
2018-10-12T22:06:26.799Z,8.23
2018-10-12T22:08:59.869Z,7.23
2018-10-12T22:11:27.142Z,8.40
2018-10-12T22:13:54.444Z,8.33
2018-10-12T22:16:21.736Z,8.67
2018-10-12T22:18:48.991Z,7.87
2018-10-12T22:21:16.254Z,7.30
2018-10-12T22:23:43.500Z,7.77
2018-10-12T22:26:10.840Z,7.60
2018-10-12T22:28:38.070Z,7.17
2018-10-12T22:31:05.337Z,6.70
2018-10-12T22:33:32.665Z,9.03
2018-10-12T22:35:59.915Z,7.07
2018-10-12T22:38:27.168Z,7.50
2018-10-12T22:40:54.505Z,7.30
2018-10-12T22:43:21.813Z,7.20
2018-10-12T22:45:49.093Z,8.17
2018-10-12T22:48:16.372Z,7.80
2018-10-12T22:50:43.649Z,7.00
2018-10-12T22:53:10.929Z,7.20
2018-10-12T22:55:38.201Z,8.10
2018-10-12T22:58:05.561Z,7.07
2018-10-12T23:00:33.625Z,7.63
2018-10-12T23:03:01.403Z,7.23
2018-10-12T23:05:28.720Z,5.30
2018-10-12T23:07:56.192Z,7.37
2018-10-12T23:10:24.181Z,6.37
2018-10-12T23:12:51.698Z,6.57
2018-10-12T23:15:18.998Z,6.43
2018-10-12T23:17:46.373Z,6.43
2018-10-12T23:20:13.685Z,7.60
2018-10-12T23:22:41.050Z,6.63
2018-10-12T23:25:08.314Z,6.23
2018-10-12T23:27:35.585Z,6.53
2018-10-12T23:30:02.934Z,6.27
2018-10-12T23:32:30.238Z,5.27
2018-10-12T23:34:57.498Z,6.23
2018-10-12T23:37:24.784Z,6.33
2018-10-12T23:39:52.082Z,6.60
2018-10-12T23:42:19.349Z,6.73
2018-10-12T23:44:46.674Z,6.27
2018-10-12T23:47:13.960Z,5.33
2018-10-12T23:49:41.189Z,5.83
2018-10-12T23:52:08.482Z,6.33
2018-10-12T23:54:35.756Z,5.90
2018-10-12T23:57:03.013Z,5.70
2018-10-12T23:59:30.333Z,6.43
